createdAt,value
2018-12-06T00:01:53.135Z,47.60
2018-12-06T00:04:22.236Z,47.60
2018-12-06T00:06:51.262Z,47.70
2018-12-06T00:09:20.338Z,47.70
2018-12-06T00:11:49.592Z,47.70
2018-12-06T00:14:18.585Z,46.90
2018-12-06T00:16:56.018Z,46.00
2018-12-06T00:19:25.063Z,45.20
2018-12-06T00:21:54.074Z,44.30
2018-12-06T00:24:23.191Z,44.30
2018-12-06T00:26:52.607Z,44.40
2018-12-06T00:29:21.818Z,44.60
2018-12-06T00:31:50.921Z,44.30
2018-12-06T00:34:20.123Z,44.00
2018-12-06T00:36:49.194Z,44.50
2018-12-06T00:39:18.293Z,44.30
2018-12-06T00:41:47.295Z,44.40
2018-12-06T00:44:16.246Z,44.30
2018-12-06T00:46:45.334Z,44.60
2018-12-06T00:49:14.427Z,46.40
2018-12-06T00:51:43.668Z,45.00
2018-12-06T00:54:12.949Z,45.00
2018-12-06T00:56:42.095Z,45.20
2018-12-06T00:59:11.113Z,44.40
2018-12-06T01:01:40.261Z,44.80
2018-12-06T01:04:09.443Z,45.40
2018-12-06T01:06:39.137Z,45.90
2018-12-06T01:09:08.141Z,46.10
2018-12-06T01:11:37.316Z,45.40
2018-12-06T01:14:06.397Z,45.40
2018-12-06T01:16:35.498Z,45.40
2018-12-06T01:19:04.589Z,45.60
2018-12-06T01:21:33.881Z,46.60
2018-12-06T01:24:02.988Z,45.30
2018-12-06T01:26:32.189Z,44.80
2018-12-06T01:29:01.338Z,44.80
2018-12-06T01:31:30.416Z,44.80
2018-12-06T01:33:59.421Z,44.80
2018-12-06T01:36:28.489Z,44.10
2018-12-06T01:38:57.558Z,44.10
2018-12-06T01:41:26.652Z,44.30
2018-12-06T01:43:55.745Z,45.10
2018-12-06T01:46:24.945Z,45.40
2018-12-06T01:48:54.033Z,44.80
2018-12-06T01:51:23.179Z,44.80
2018-12-06T01:53:52.322Z,45.00
2018-12-06T01:56:21.338Z,45.50
2018-12-06T01:58:50.397Z,44.90
2018-12-06T02:01:19.503Z,45.30
2018-12-06T02:03:48.544Z,45.30
2018-12-06T02:06:17.492Z,45.20
2018-12-06T02:08:46.613Z,44.90
2018-12-06T02:11:15.809Z,44.50
2018-12-06T02:13:44.870Z,44.40
2018-12-06T02:16:13.922Z,44.30
2018-12-06T02:18:43.281Z,44.10
2018-12-06T02:21:12.330Z,44.30
2018-12-06T02:23:41.328Z,44.90
2018-12-06T02:26:10.390Z,43.80
2018-12-06T02:28:39.616Z,43.80
2018-12-06T02:31:08.648Z,43.40
2018-12-06T02:33:37.872Z,42.80
2018-12-06T02:36:06.897Z,43.00
2018-12-06T02:38:35.933Z,44.80
2018-12-06T02:41:05.012Z,43.60
2018-12-06T02:43:34.166Z,42.00
2018-12-06T02:46:03.205Z,42.40
2018-12-06T02:48:32.268Z,43.00
2018-12-06T02:51:01.349Z,43.80
2018-12-06T02:53:30.413Z,43.20
2018-12-06T02:55:59.427Z,42.40
2018-12-06T02:58:28.398Z,42.50
2018-12-06T03:00:57.477Z,42.60
2018-12-06T03:03:27.215Z,42.00
2018-12-06T03:05:56.416Z,41.80
2018-12-06T03:08:25.470Z,41.60
2018-12-06T03:10:54.542Z,41.40
2018-12-06T03:13:23.556Z,41.50
2018-12-06T03:15:52.647Z,41.30
2018-12-06T03:18:21.889Z,41.10
2018-12-06T03:20:50.974Z,40.80
2018-12-06T03:23:20.022Z,41.30
2018-12-06T03:25:49.166Z,41.50
2018-12-06T03:28:18.196Z,41.50
2018-12-06T03:30:47.218Z,40.80
2018-12-06T03:33:16.451Z,40.00
2018-12-06T03:35:45.614Z,40.10
2018-12-06T03:38:14.697Z,39.70
2018-12-06T03:40:43.787Z,40.60
2018-12-06T03:43:13.370Z,39.90
2018-12-06T03:45:42.358Z,39.00
2018-12-06T03:48:11.370Z,38.30
2018-12-06T03:50:40.384Z,39.70
2018-12-06T03:53:09.481Z,38.20
2018-12-06T03:55:38.563Z,38.80
2018-12-06T03:58:07.694Z,36.20
2018-12-06T04:00:36.754Z,36.10
2018-12-06T04:03:05.817Z,36.10
2018-12-06T04:05:34.866Z,36.10
2018-12-06T04:08:03.938Z,36.20
2018-12-06T04:10:33.593Z,34.40
2018-12-06T04:13:02.572Z,34.80
2018-12-06T04:15:31.806Z,34.50
2018-12-06T04:18:00.780Z,34.30
2018-12-06T04:20:29.764Z,34.50
2018-12-06T04:22:58.798Z,33.90
2018-12-06T04:25:27.874Z,33.80
2018-12-06T04:27:56.897Z,33.90
2018-12-06T04:30:25.962Z,33.70
2018-12-06T04:32:55.014Z,33.00
2018-12-06T04:35:24.109Z,32.90
2018-12-06T04:37:53.163Z,32.50
2018-12-06T04:40:22.229Z,32.10
2018-12-06T04:42:51.283Z,32.30
2018-12-06T04:45:20.309Z,32.30
2018-12-06T04:47:49.354Z,32.00
2018-12-06T04:50:18.565Z,32.00
2018-12-06T04:52:47.593Z,33.20
2018-12-06T04:55:16.633Z,31.30
2018-12-06T04:57:45.799Z,30.90
2018-12-06T05:00:14.856Z,30.50
2018-12-06T05:02:43.914Z,30.90
2018-12-06T05:05:13.020Z,31.10
2018-12-06T05:07:42.286Z,31.30
2018-12-06T05:10:11.330Z,30.90
2018-12-06T05:12:40.373Z,30.40
2018-12-06T05:15:09.428Z,30.40
2018-12-06T05:17:38.571Z,30.90
2018-12-06T05:20:07.624Z,30.60
2018-12-06T05:22:36.688Z,30.00
2018-12-06T05:25:06.308Z,30.20
2018-12-06T05:27:35.480Z,30.00
2018-12-06T05:30:05.227Z,31.60
2018-12-06T05:32:34.310Z,30.00
2018-12-06T05:35:03.412Z,29.50
2018-12-06T05:37:32.469Z,29.20
2018-12-06T05:40:01.511Z,28.50
2018-12-06T05:42:30.525Z,29.10
2018-12-06T05:44:59.542Z,28.00
2018-12-06T05:47:28.698Z,28.60
2018-12-06T05:49:57.738Z,27.60
2018-12-06T05:52:26.839Z,28.10
2018-12-06T05:54:55.939Z,28.00
2018-12-06T05:57:24.937Z,27.80
2018-12-06T05:59:54.286Z,27.90
2018-12-06T06:02:23.362Z,27.20
2018-12-06T06:04:52.394Z,27.40
2018-12-06T06:07:21.708Z,27.20
2018-12-06T06:09:50.753Z,26.90
2018-12-06T06:12:19.826Z,26.20
2018-12-06T06:14:48.898Z,27.10
2018-12-06T06:17:17.809Z,27.20
2018-12-06T06:19:46.977Z,27.20
2018-12-06T06:22:16.146Z,26.90
2018-12-06T06:24:45.175Z,26.80
2018-12-06T06:27:14.201Z,27.00
2018-12-06T06:29:43.162Z,27.70
2018-12-06T06:32:12.082Z,26.40
2018-12-06T06:34:41.195Z,26.00
2018-12-06T06:37:10.662Z,25.70
2018-12-06T06:39:40.124Z,26.60
2018-12-06T06:42:09.145Z,26.30
2018-12-06T06:44:38.258Z,25.80
2018-12-06T06:47:07.254Z,25.80
2018-12-06T06:49:36.205Z,25.80
2018-12-06T06:52:05.197Z,25.80
2018-12-06T06:54:34.204Z,25.80
2018-12-06T06:57:03.325Z,25.10
2018-12-06T06:59:32.455Z,25.80
2018-12-06T07:02:01.480Z,25.70
2018-12-06T07:04:30.530Z,25.60
2018-12-06T07:06:59.488Z,26.00
2018-12-06T07:09:28.612Z,25.80
2018-12-06T07:11:57.618Z,26.20
2018-12-06T07:14:26.713Z,26.40
2018-12-06T07:16:55.697Z,26.70
2018-12-06T07:19:24.869Z,26.70
2018-12-06T07:21:53.959Z,26.90
2018-12-06T07:24:23.575Z,27.00
2018-12-06T07:26:53.523Z,28.50
2018-12-06T07:29:22.522Z,27.50
2018-12-06T07:31:51.486Z,27.90
2018-12-06T07:34:20.500Z,27.50
2018-12-06T07:36:49.542Z,28.00
2018-12-06T07:39:20.211Z,27.70
2018-12-06T07:41:49.229Z,27.80
2018-12-06T07:44:18.384Z,27.80
2018-12-06T07:46:47.717Z,27.20
2018-12-06T07:49:16.762Z,27.10
2018-12-06T07:51:46.269Z,27.50
2018-12-06T07:54:15.322Z,27.40
2018-12-06T07:56:44.992Z,27.30
2018-12-06T07:59:13.971Z,27.20
2018-12-06T08:01:43.206Z,27.50
2018-12-06T08:04:12.919Z,27.80
2018-12-06T08:06:42.337Z,27.60
2018-12-06T08:09:11.564Z,28.10
2018-12-06T08:11:40.629Z,28.10
2018-12-06T08:14:10.137Z,28.60
2018-12-06T08:16:39.863Z,28.30
2018-12-06T08:19:10.634Z,28.10
2018-12-06T08:21:39.637Z,27.40
2018-12-06T08:24:08.600Z,26.80
2018-12-06T08:26:37.607Z,26.00
2018-12-06T08:29:07.499Z,25.80
2018-12-06T08:31:36.518Z,25.80
2018-12-06T08:34:06.359Z,25.80
2018-12-06T08:36:36.263Z,25.80
2018-12-06T08:39:07.062Z,26.40
2018-12-06T08:41:36.130Z,25.90
2018-12-06T08:44:06.141Z,26.00
2018-12-06T08:46:40.685Z,26.20
2018-12-06T08:49:10.260Z,25.30
2018-12-06T08:51:39.393Z,25.00
2018-12-06T08:54:13.603Z,23.90
2018-12-06T08:56:45.234Z,24.30
2018-12-06T08:59:14.329Z,24.30
2018-12-06T09:01:44.186Z,23.50
2018-12-06T09:04:19.128Z,23.60
2018-12-06T09:06:48.170Z,22.90
2018-12-06T09:09:17.252Z,23.40
2018-12-06T09:11:46.903Z,22.60
2018-12-06T09:14:15.845Z,23.60
